Portada
METAR-TAF:

METAR-TAF

Aeroports :

Nakhon Ratchasima, Tailàndia

latitud: 14-56-58N, longitud: 102-18-45E, altitud: 233 m

Observació

L'informe es va fer fa 39 minuts, a les 03:00 UTC
Vent 8 kt del Nord-Est, variant entre Nord-Oest i Est
Temperatura 27°C
Humitat 70%
Pressió 1017 hPa
Visibilitat 10 km o més
Escasses núvols a una alçada de 3000 ft

METAR: VTUQ 210300Z 05008KT 320V090 9999 FEW030 27/21 Q1017 NOSIG

Hora: 10:39 (03:39 UTC)

Pronòstic

L'informe es va fer fa 4 hores i 39 minuts, a les 23:00 UTC
Pronòstic vàlid del 21 a les 00 UTC al 21 a les 24 UTC
Vent 8 kt del Nord-Est
Visibilitat: 9000 m
Escasses núvols a una alçada de 3000 ft

TAF: VTUQ 202300Z 2100/2124 05008KT 9000 FEW030

Observacions i pronòstics meteorològics de més de 4000 aeroports (METAR i TAF).

Les estacions disponibles són els punts grocs i vermells al mapa.

Posi el ratolí al punt desitjat per veure el nom de l'estació.

Feu clic per veure les observacions i els pronòstics meteorològics.

Per canviar el mapa: feu clic els botons verds amb una creu de color negre per apropar; al botó verd amb un guió per allunyar la imatge; o en les fletxes verdes per a mapes adjacents.


METAR-TAF: